createdAt,value
2017-06-20T00:01:28.712Z,22.20
2017-06-20T00:03:58.500Z,22.20
2017-06-20T00:06:26.823Z,22.10
2017-06-20T00:08:55.107Z,22.10
2017-06-20T00:11:23.378Z,22.10
2017-06-20T00:16:21.227Z,21.90
2017-06-20T00:18:49.536Z,22.00
2017-06-20T00:21:17.867Z,21.90
2017-06-20T00:26:16.054Z,21.90
2017-06-20T00:31:14.652Z,21.80
2017-06-20T00:33:43.703Z,21.70
2017-06-20T00:38:41.919Z,21.70
2017-06-20T00:41:10.195Z,21.60
2017-06-20T00:43:38.516Z,21.60
2017-06-20T00:46:06.810Z,21.60
2017-06-20T00:48:35.119Z,21.60
2017-06-20T00:51:03.488Z,21.50
2017-06-20T00:53:33.314Z,21.50
2017-06-20T00:56:01.638Z,21.50
2017-06-20T01:00:59.554Z,21.50
2017-06-20T01:03:27.834Z,21.40
2017-06-20T01:05:57.683Z,21.40
2017-06-20T01:10:56.953Z,21.40
2017-06-20T01:13:25.747Z,21.40
2017-06-20T01:15:54.795Z,21.40
2017-06-20T01:18:23.462Z,21.30
2017-06-20T01:23:21.735Z,21.30
2017-06-20T01:25:50.026Z,21.30
2017-06-20T01:28:18.851Z,21.30
2017-06-20T01:30:48.270Z,21.20
2017-06-20T01:33:16.583Z,21.20
2017-06-20T01:35:44.910Z,21.10
2017-06-20T01:38:13.190Z,21.10
2017-06-20T01:40:41.471Z,21.10
2017-06-20T01:43:11.687Z,21.10
2017-06-20T01:45:41.475Z,21.10
2017-06-20T01:50:40.390Z,21.00
2017-06-20T01:53:09.423Z,21.00
2017-06-20T01:58:07.656Z,21.00
2017-06-20T02:00:36.743Z,20.90
2017-06-20T02:03:05.832Z,20.90
2017-06-20T02:05:34.169Z,20.80
2017-06-20T02:08:02.515Z,20.80
2017-06-20T02:10:30.872Z,20.80
2017-06-20T02:13:00.020Z,20.80
2017-06-20T02:15:28.309Z,20.70
2017-06-20T02:17:56.987Z,20.70
2017-06-20T02:20:25.333Z,20.70
2017-06-20T02:22:54.759Z,20.70
2017-06-20T02:25:23.051Z,20.70
2017-06-20T02:30:21.687Z,20.70
2017-06-20T02:32:49.995Z,20.70
2017-06-20T02:35:18.327Z,20.70
2017-06-20T02:37:47.383Z,20.70
2017-06-20T02:40:15.679Z,20.70
2017-06-20T02:45:13.527Z,20.70
2017-06-20T02:47:42.086Z,20.70
2017-06-20T02:50:10.511Z,20.70
2017-06-20T02:52:39.939Z,20.60
2017-06-20T02:55:08.263Z,20.60
2017-06-20T02:57:36.615Z,20.60
2017-06-20T03:00:06.472Z,20.60
2017-06-20T03:02:34.780Z,20.60
2017-06-20T03:05:04.454Z,20.60
2017-06-20T03:07:33.178Z,20.50
2017-06-20T03:10:01.967Z,20.50
2017-06-20T03:14:59.847Z,20.40
2017-06-20T03:17:28.133Z,20.40
2017-06-20T03:19:57.231Z,20.40
2017-06-20T03:22:25.514Z,20.40
2017-06-20T03:24:53.807Z,20.30
2017-06-20T03:27:23.646Z,20.30
2017-06-20T03:29:51.938Z,20.40
2017-06-20T03:32:20.228Z,20.30
2017-06-20T03:34:48.967Z,20.40
2017-06-20T03:37:18.024Z,20.30
2017-06-20T03:39:46.317Z,20.30
2017-06-20T03:42:14.646Z,20.30
2017-06-20T03:44:42.934Z,20.30
2017-06-20T03:47:11.242Z,20.30
2017-06-20T03:49:41.199Z,20.20
2017-06-20T03:52:09.553Z,20.20
2017-06-20T03:54:37.864Z,20.20
2017-06-20T03:57:07.303Z,20.20
2017-06-20T04:02:06.291Z,20.20
2017-06-20T04:04:35.414Z,20.20
2017-06-20T04:07:03.739Z,20.20
2017-06-20T04:09:32.048Z,20.20
2017-06-20T04:12:01.548Z,20.20
2017-06-20T04:14:29.854Z,20.10
2017-06-20T04:16:58.139Z,20.20
2017-06-20T04:19:26.467Z,20.20
2017-06-20T04:21:54.755Z,20.20
2017-06-20T04:24:23.048Z,20.30
2017-06-20T04:26:51.402Z,20.30
2017-06-20T04:29:20.858Z,20.30
2017-06-20T04:31:49.145Z,20.30
2017-06-20T04:34:17.483Z,20.30
2017-06-20T04:36:45.763Z,20.30
2017-06-20T04:39:14.824Z,20.40
2017-06-20T04:46:42.179Z,20.40
2017-06-20T04:49:11.278Z,20.40
2017-06-20T04:54:09.606Z,20.40
2017-06-20T04:56:38.075Z,20.50
2017-06-20T04:59:06.399Z,20.60
2017-06-20T05:01:34.732Z,20.60
2017-06-20T05:04:03.853Z,20.70
2017-06-20T05:06:32.169Z,20.70
2017-06-20T05:09:00.456Z,20.80
2017-06-20T05:11:28.790Z,20.80
2017-06-20T05:13:57.080Z,20.90
2017-06-20T05:16:26.868Z,20.90
2017-06-20T05:21:25.572Z,21.00
2017-06-20T05:23:53.858Z,21.10
2017-06-20T05:26:22.199Z,21.10
2017-06-20T05:28:50.921Z,21.20
2017-06-20T05:31:19.207Z,21.20
2017-06-20T05:33:49.074Z,21.30
2017-06-20T05:36:17.371Z,21.40
2017-06-20T05:38:45.663Z,21.50
2017-06-20T05:41:13.985Z,21.50
2017-06-20T05:43:43.776Z,21.60
2017-06-20T05:46:12.826Z,21.70
2017-06-20T05:48:42.355Z,21.80
2017-06-20T05:51:10.642Z,21.80
2017-06-20T05:53:38.935Z,21.90
2017-06-20T05:56:07.551Z,22.00
2017-06-20T05:58:36.994Z,22.10
2017-06-20T06:01:05.292Z,22.20
2017-06-20T06:06:03.587Z,22.50
2017-06-20T06:11:02.992Z,22.70
2017-06-20T06:13:31.308Z,22.80
2017-06-20T06:16:01.130Z,22.90
2017-06-20T06:20:59.068Z,23.30
2017-06-20T06:23:27.358Z,23.40
2017-06-20T06:25:57.433Z,23.50
2017-06-20T06:28:25.727Z,23.70
2017-06-20T06:30:54.010Z,23.80
2017-06-20T06:33:22.383Z,24.10
2017-06-20T06:35:50.708Z,24.40
2017-06-20T06:38:19.025Z,24.70
2017-06-20T06:40:47.372Z,25.00
2017-06-20T06:43:17.196Z,25.40
2017-06-20T06:45:45.507Z,25.80
2017-06-20T06:48:14.280Z,26.10
2017-06-20T06:53:12.883Z,26.80
2017-06-20T06:55:41.272Z,27.10
2017-06-20T06:58:09.621Z,27.40
2017-06-20T07:00:37.942Z,27.80
2017-06-20T07:03:06.286Z,28.20
2017-06-20T07:05:35.363Z,28.50
2017-06-20T07:08:04.076Z,28.70
2017-06-20T07:10:32.474Z,28.90
2017-06-20T07:15:30.328Z,29.30
2017-06-20T07:20:28.496Z,29.70
2017-06-20T07:22:56.945Z,29.90
2017-06-20T07:25:25.711Z,30.20
2017-06-20T07:27:54.411Z,30.50
2017-06-20T07:30:23.869Z,30.70
2017-06-20T07:32:53.012Z,30.80
2017-06-20T07:35:22.464Z,31.00
2017-06-20T07:37:50.792Z,31.10
2017-06-20T07:40:19.147Z,31.20
2017-06-20T07:42:47.464Z,31.20
2017-06-20T07:45:15.756Z,31.40
2017-06-20T07:47:44.191Z,31.40
2017-06-20T07:50:13.267Z,31.50
2017-06-20T07:52:41.588Z,31.60
2017-06-20T07:57:39.963Z,31.80
2017-06-20T08:00:09.036Z,32.00
2017-06-20T08:02:37.808Z,32.20
2017-06-20T08:05:06.887Z,32.20
2017-06-20T08:07:35.203Z,32.20
2017-06-20T08:10:04.444Z,32.40
2017-06-20T08:12:33.553Z,32.60
2017-06-20T08:15:02.281Z,32.60
2017-06-20T08:17:31.439Z,32.70
2017-06-20T08:20:00.513Z,32.80
2017-06-20T08:22:28.800Z,33.00
2017-06-20T08:24:57.143Z,33.20
2017-06-20T08:27:25.436Z,33.40
2017-06-20T08:29:55.236Z,33.50
2017-06-20T08:32:27.113Z,33.60
2017-06-20T08:34:55.808Z,33.70
2017-06-20T08:37:25.002Z,33.80
2017-06-20T08:39:53.743Z,33.80
2017-06-20T08:42:22.455Z,33.80
2017-06-20T08:44:50.772Z,33.70
2017-06-20T08:47:20.667Z,33.80
2017-06-20T08:49:48.955Z,33.80
2017-06-20T08:52:18.044Z,33.70
2017-06-20T08:54:46.379Z,33.60
2017-06-20T08:57:14.667Z,33.60
2017-06-20T08:59:42.954Z,33.80
2017-06-20T09:02:12.804Z,33.80
2017-06-20T09:04:41.095Z,33.90
2017-06-20T09:07:09.382Z,34.00
2017-06-20T09:09:37.727Z,34.20
2017-06-20T09:12:06.050Z,34.30
2017-06-20T09:14:35.152Z,34.60
2017-06-20T09:17:04.391Z,34.70
2017-06-20T09:19:33.879Z,34.70
2017-06-20T09:24:32.183Z,34.90
2017-06-20T09:27:00.501Z,34.90
2017-06-20T09:29:29.911Z,35.00
2017-06-20T09:31:58.999Z,35.10
2017-06-20T09:34:28.067Z,35.20
2017-06-20T09:36:56.390Z,35.20
2017-06-20T09:39:25.723Z,35.20
2017-06-20T09:41:54.428Z,35.20
2017-06-20T09:44:22.745Z,35.30
2017-06-20T09:46:51.116Z,35.40
2017-06-20T09:49:19.421Z,35.50
2017-06-20T09:51:47.700Z,35.60
2017-06-20T09:54:16.792Z,35.60
2017-06-20T09:56:45.850Z,35.60
2017-06-20T09:59:14.154Z,35.70
2017-06-20T10:01:42.563Z,35.80
2017-06-20T10:04:11.243Z,35.90
2017-06-20T10:09:10.728Z,36.00
2017-06-20T10:11:39.787Z,36.10
2017-06-20T10:14:08.106Z,36.20
2017-06-20T10:16:37.266Z,36.20
2017-06-20T10:19:05.987Z,36.30
2017-06-20T10:21:34.310Z,36.40
2017-06-20T10:24:03.542Z,36.40
2017-06-20T10:26:32.231Z,36.20
2017-06-20T10:29:00.537Z,36.10
2017-06-20T10:31:29.265Z,36.00
2017-06-20T10:33:57.556Z,36.00
2017-06-20T10:36:25.843Z,36.10
2017-06-20T10:38:57.559Z,36.10
2017-06-20T10:41:25.847Z,36.20
2017-06-20T10:43:54.893Z,36.30
2017-06-20T10:46:24.007Z,36.30
2017-06-20T10:48:52.315Z,36.40
2017-06-20T10:51:21.393Z,36.40
2017-06-20T10:53:49.761Z,36.60
2017-06-20T10:56:18.807Z,36.70
2017-06-20T10:58:47.881Z,36.80
2017-06-20T11:01:17.004Z,36.90
2017-06-20T11:03:46.067Z,36.80
2017-06-20T11:06:14.367Z,36.80
2017-06-20T11:11:14.235Z,36.90
2017-06-20T11:13:42.519Z,36.90
2017-06-20T11:16:10.885Z,37.00
2017-06-20T11:18:39.176Z,36.90
2017-06-20T11:23:37.447Z,36.70
2017-06-20T11:26:05.757Z,36.50
2017-06-20T11:28:35.231Z,36.30
2017-06-20T11:31:03.990Z,36.10
2017-06-20T11:33:32.359Z,35.90
2017-06-20T11:36:01.469Z,35.70
2017-06-20T11:38:29.815Z,35.60
2017-06-20T11:43:27.655Z,35.50
2017-06-20T11:45:56.016Z,35.60
2017-06-20T11:48:24.300Z,35.70
2017-06-20T11:50:52.617Z,35.80
2017-06-20T11:53:20.975Z,35.90
2017-06-20T11:55:49.289Z,36.00
2017-06-20T11:58:17.596Z,36.10
2017-06-20T12:00:46.714Z,36.10
2017-06-20T12:03:15.004Z,36.00
2017-06-20T12:05:43.578Z,36.00
2017-06-20T12:08:11.932Z,35.90
2017-06-20T12:10:41.758Z,35.90
2017-06-20T12:13:10.512Z,35.90
2017-06-20T12:15:40.360Z,35.80
2017-06-20T12:18:09.415Z,35.80
2017-06-20T12:23:07.685Z,35.60
2017-06-20T12:25:36.006Z,35.40
2017-06-20T12:28:04.324Z,35.30
2017-06-20T12:30:32.693Z,35.40
2017-06-20T12:33:01.794Z,35.50
2017-06-20T12:35:30.096Z,35.50
2017-06-20T12:37:58.624Z,35.50
2017-06-20T12:40:26.921Z,35.50
2017-06-20T12:42:55.208Z,35.50
2017-06-20T12:45:23.588Z,35.50
2017-06-20T12:47:51.909Z,35.70
2017-06-20T12:50:21.357Z,35.80
2017-06-20T12:52:49.791Z,35.80
2017-06-20T12:55:18.102Z,35.70
2017-06-20T12:57:47.172Z,35.60
2017-06-20T13:00:16.127Z,35.50
2017-06-20T13:05:14.407Z,35.50
2017-06-20T13:07:43.508Z,35.40
2017-06-20T13:10:11.803Z,35.40
2017-06-20T13:12:40.103Z,35.40
2017-06-20T13:15:08.435Z,35.40
2017-06-20T13:17:36.763Z,35.50
2017-06-20T13:20:06.251Z,35.60
2017-06-20T13:22:34.634Z,35.70
2017-06-20T13:27:32.937Z,35.70
2017-06-20T13:30:01.446Z,35.80
2017-06-20T13:32:29.773Z,35.90
2017-06-20T13:34:58.083Z,36.00
2017-06-20T13:37:26.842Z,36.00
2017-06-20T13:39:55.128Z,36.10
2017-06-20T13:42:23.408Z,36.30
2017-06-20T13:44:51.793Z,36.50
2017-06-20T13:47:20.917Z,36.60
2017-06-20T13:49:49.627Z,36.70
2017-06-20T13:52:17.987Z,36.80
2017-06-20T13:54:46.327Z,36.70
2017-06-20T13:57:14.698Z,36.50
2017-06-20T13:59:43.570Z,36.30
2017-06-20T14:02:11.940Z,36.20
2017-06-20T14:04:40.269Z,36.00
2017-06-20T14:07:08.640Z,35.80
2017-06-20T14:09:37.021Z,35.80
2017-06-20T14:12:05.374Z,35.60
2017-06-20T14:14:33.792Z,35.30
2017-06-20T14:17:02.515Z,35.10
2017-06-20T14:19:32.006Z,35.00
2017-06-20T14:22:01.135Z,34.80
2017-06-20T14:24:29.472Z,34.70
2017-06-20T14:26:59.080Z,34.60
2017-06-20T14:29:37.579Z,34.40
2017-06-20T14:32:07.104Z,34.30
2017-06-20T14:34:35.689Z,34.10
2017-06-20T14:37:23.739Z,33.90
2017-06-20T14:39:52.884Z,33.70
2017-06-20T14:42:21.967Z,33.60
2017-06-20T14:44:51.683Z,33.50
2017-06-20T14:47:20.509Z,33.40
2017-06-20T14:49:49.666Z,33.30
2017-06-20T14:52:20.067Z,33.30
2017-06-20T14:57:52.773Z,33.10
2017-06-20T15:00:21.500Z,33.10
2017-06-20T15:02:49.789Z,33.00
2017-06-20T15:05:18.883Z,33.00
2017-06-20T15:10:17.738Z,32.80
2017-06-20T15:12:47.223Z,32.60
2017-06-20T15:15:15.518Z,32.50
2017-06-20T15:17:43.808Z,32.50
2017-06-20T15:20:12.179Z,32.40
2017-06-20T15:22:40.648Z,32.30
2017-06-20T15:25:09.957Z,32.20
2017-06-20T15:27:38.336Z,32.10
2017-06-20T15:30:08.143Z,31.90
2017-06-20T15:32:37.210Z,31.90
2017-06-20T15:35:06.685Z,31.80
2017-06-20T15:37:35.009Z,31.80
2017-06-20T15:40:03.344Z,31.70
2017-06-20T15:42:32.468Z,31.60
2017-06-20T15:45:00.768Z,31.50
2017-06-20T15:47:29.079Z,31.40
2017-06-20T15:49:57.452Z,31.40
2017-06-20T15:52:26.515Z,31.40
2017-06-20T15:54:55.199Z,31.30
2017-06-20T15:57:23.546Z,31.30
2017-06-20T15:59:51.897Z,31.30
2017-06-20T16:02:20.218Z,31.20
2017-06-20T16:04:48.553Z,31.10
2017-06-20T16:07:17.599Z,31.10
2017-06-20T16:09:46.655Z,31.00
2017-06-20T16:12:16.472Z,31.10
2017-06-20T16:14:45.199Z,31.10
2017-06-20T16:17:14.635Z,31.10
2017-06-20T16:19:43.075Z,31.00
2017-06-20T16:22:12.139Z,31.00
2017-06-20T16:24:40.440Z,31.00
2017-06-20T16:29:39.820Z,30.90
2017-06-20T16:32:08.924Z,30.90
2017-06-20T16:34:37.675Z,30.80
2017-06-20T16:39:36.347Z,30.80
2017-06-20T16:42:05.118Z,30.90
2017-06-20T16:44:34.291Z,30.80
2017-06-20T16:47:03.733Z,30.80
2017-06-20T16:49:32.804Z,30.70
2017-06-20T16:52:01.904Z,30.60
2017-06-20T16:54:30.196Z,30.60
2017-06-20T16:56:58.561Z,30.70
2017-06-20T17:01:56.809Z,30.80
2017-06-20T17:04:25.190Z,30.70
2017-06-20T17:06:53.701Z,30.70
2017-06-20T17:09:22.446Z,30.70
2017-06-20T17:11:50.811Z,30.70
2017-06-20T17:14:20.143Z,30.50
2017-06-20T17:16:48.832Z,30.50
2017-06-20T17:19:17.155Z,30.40
2017-06-20T17:21:45.504Z,30.40
2017-06-20T17:24:13.858Z,30.40
2017-06-20T17:26:43.424Z,30.30
2017-06-20T17:29:11.851Z,30.30
2017-06-20T17:31:40.200Z,30.20
2017-06-20T17:34:08.603Z,30.20
2017-06-20T17:36:38.432Z,30.20
2017-06-20T17:39:06.738Z,30.10
2017-06-20T17:41:36.696Z,30.00
2017-06-20T17:44:04.992Z,30.00
2017-06-20T17:46:33.301Z,30.00
2017-06-20T17:51:31.735Z,29.90
2017-06-20T17:54:02.131Z,29.80
2017-06-20T17:56:30.477Z,29.70
2017-06-20T17:58:58.757Z,29.70
2017-06-20T18:01:27.047Z,29.70
2017-06-20T18:03:55.387Z,29.60
2017-06-20T18:06:23.686Z,29.60
2017-06-20T18:08:52.019Z,29.60
2017-06-20T18:11:20.517Z,29.50
2017-06-20T18:13:49.570Z,29.30
2017-06-20T18:16:17.855Z,29.30
2017-06-20T18:18:46.187Z,29.20
2017-06-20T18:21:14.467Z,29.10
2017-06-20T18:23:42.752Z,29.00
2017-06-20T18:26:11.840Z,28.90
2017-06-20T18:28:40.926Z,28.80
2017-06-20T18:31:10.384Z,28.80
2017-06-20T18:33:38.803Z,28.70
2017-06-20T18:36:07.189Z,28.60
2017-06-20T18:41:06.685Z,28.50
2017-06-20T18:43:35.016Z,28.50
2017-06-20T18:46:03.462Z,28.50
2017-06-20T18:48:32.834Z,28.40
2017-06-20T18:51:02.288Z,28.30
2017-06-20T18:53:30.611Z,28.20
2017-06-20T18:55:59.463Z,28.20
2017-06-20T18:58:28.540Z,28.20
2017-06-20T19:00:57.976Z,28.20
2017-06-20T19:03:26.354Z,28.20
2017-06-20T19:05:57.436Z,28.20
2017-06-20T19:10:56.953Z,28.10
2017-06-20T19:13:33.329Z,27.90
2017-06-20T19:16:01.671Z,27.90
2017-06-20T19:18:33.956Z,27.80
2017-06-20T19:21:02.298Z,27.70
2017-06-20T19:23:30.601Z,27.70
2017-06-20T19:25:59.704Z,27.70
2017-06-20T19:28:28.001Z,27.60
2017-06-20T19:30:56.743Z,27.50
2017-06-20T19:33:25.898Z,27.50
2017-06-20T19:41:00.802Z,27.30
2017-06-20T19:43:29.169Z,27.30
2017-06-20T19:48:28.613Z,27.20
2017-06-20T19:51:02.079Z,27.20
2017-06-20T19:53:32.269Z,27.10
2017-06-20T19:56:01.013Z,27.00
2017-06-20T19:58:29.594Z,27.00
2017-06-20T20:00:58.340Z,26.90
2017-06-20T20:03:26.792Z,26.80
2017-06-20T20:05:55.179Z,26.70
2017-06-20T20:08:24.627Z,26.60
2017-06-20T20:10:53.001Z,26.60
2017-06-20T20:13:22.161Z,26.50
2017-06-20T20:15:50.904Z,26.40
2017-06-20T20:18:19.964Z,26.40
2017-06-20T20:20:48.472Z,26.30
2017-06-20T20:23:16.783Z,26.20
2017-06-20T20:25:45.237Z,26.20
2017-06-20T20:30:43.527Z,26.10
2017-06-20T20:33:13.330Z,26.00
2017-06-20T20:35:42.807Z,26.00
2017-06-20T20:38:11.957Z,25.90
2017-06-20T20:40:40.368Z,25.80
2017-06-20T20:43:10.239Z,25.80
2017-06-20T20:45:38.591Z,25.80
2017-06-20T20:48:06.947Z,25.80
2017-06-20T20:50:35.337Z,25.80
2017-06-20T20:53:03.665Z,25.70
2017-06-20T20:55:32.723Z,25.70
2017-06-20T20:58:01.448Z,25.70
2017-06-20T21:00:32.553Z,25.60
2017-06-20T21:03:01.792Z,25.50
2017-06-20T21:05:34.098Z,25.60
2017-06-20T21:10:55.212Z,25.50
2017-06-20T21:13:24.264Z,25.40
2017-06-20T21:15:52.562Z,25.40
2017-06-20T21:18:22.705Z,25.30
2017-06-20T21:20:52.456Z,25.30
2017-06-20T21:23:22.264Z,25.20
2017-06-20T21:25:50.649Z,25.20
2017-06-20T21:28:20.340Z,25.10
2017-06-20T21:30:50.442Z,25.00
2017-06-20T21:33:19.180Z,25.00
2017-06-20T21:35:47.472Z,25.00
2017-06-20T21:38:16.539Z,24.90
2017-06-20T21:40:44.869Z,24.80
2017-06-20T21:43:13.155Z,24.80
2017-06-20T21:45:41.455Z,24.70
2017-06-20T21:48:09.915Z,24.70
2017-06-20T21:50:38.973Z,24.60
2017-06-20T21:55:37.235Z,24.50
2017-06-20T21:58:07.179Z,24.50
2017-06-20T22:00:35.490Z,24.50
2017-06-20T22:03:04.364Z,24.50
2017-06-20T22:05:33.803Z,24.40
2017-06-20T22:08:02.156Z,24.30
2017-06-20T22:10:30.551Z,24.20
2017-06-20T22:12:58.840Z,24.20
2017-06-20T22:15:27.136Z,24.30
2017-06-20T22:17:55.467Z,24.20
2017-06-20T22:22:54.769Z,24.20
2017-06-20T22:27:53.480Z,24.00
2017-06-20T22:30:21.795Z,24.00
2017-06-20T22:32:51.661Z,23.90
2017-06-20T22:35:21.079Z,23.80
2017-06-20T22:37:49.425Z,23.80
2017-06-20T22:40:18.659Z,23.80
2017-06-20T22:42:47.331Z,23.80
2017-06-20T22:45:15.615Z,23.80
2017-06-20T22:47:43.938Z,23.70
2017-06-20T22:50:13.731Z,23.60
2017-06-20T22:52:42.772Z,23.60
2017-06-20T22:55:12.135Z,23.50
2017-06-20T22:57:41.926Z,23.50
2017-06-20T23:00:10.194Z,23.50
2017-06-20T23:02:38.899Z,23.40
2017-06-20T23:05:07.201Z,23.40
2017-06-20T23:07:37.010Z,23.40
2017-06-20T23:10:05.381Z,23.30
2017-06-20T23:12:33.683Z,23.30
2017-06-20T23:15:01.971Z,23.30
2017-06-20T23:20:00.231Z,23.20
2017-06-20T23:22:29.270Z,23.20
2017-06-20T23:24:57.986Z,23.20
2017-06-20T23:27:27.398Z,23.20
2017-06-20T23:29:55.674Z,23.20
2017-06-20T23:32:23.998Z,23.10
2017-06-20T23:34:52.317Z,23.10
2017-06-20T23:37:20.596Z,23.00
2017-06-20T23:39:48.914Z,23.00
2017-06-20T23:42:17.191Z,22.90
2017-06-20T23:44:46.602Z,22.80
2017-06-20T23:47:15.871Z,22.80
2017-06-20T23:49:44.543Z,22.70
2017-06-20T23:52:13.587Z,22.60
2017-06-20T23:54:42.139Z,22.60
2017-06-20T23:59:41.059Z,22.50
